Juan Jose Paso, Argentina
Current Conditions -  °F | °C
As of 1:00 AM on Sunday 21 Dec 2014 (Local Time) from SAOC Reporting Station
Broken Clouds Broken Clouds  
Wind Chill: 14°   Ceiling: 10000
Heat Index: 14°   Visibility: 6mi
Dew Point:   Wind: 12mph
Humidity: 51%   Direction: 160°SSE
Pressure: 29.85"   Gusts: NA
Location:  35.83°S, 62.27°W
Report Text: SAOC 210400Z 16010KT 9999 SCT030 BKN10014/04 Q1011
Loading
Personal Weather Stations






























Interactive Weather Map New forecast layout! Learn more

10-Day Weather Forecast

Advertisements
Track Severe Weather on mobile